sensor_id;sensor_type;location;lat;lon;timestamp;P1;durP1;ratioP1;P2;durP2;ratioP2
35745;SDS011;21870;42.812;74.628;2022-11-12T00:00:44;4.93;;;4.45;;
35745;SDS011;21870;42.812;74.628;2022-11-12T00:03:10;5.47;;;4.78;;
35745;SDS011;21870;42.812;74.628;2022-11-12T00:05:36;4.30;;;3.90;;
35745;SDS011;21870;42.812;74.628;2022-11-12T00:08:03;6.60;;;4.47;;
35745;SDS011;21870;42.812;74.628;2022-11-12T00:10:29;5.43;;;4.43;;
35745;SDS011;21870;42.812;74.628;2022-11-12T00:12:56;10.38;;;5.43;;
35745;SDS011;21870;42.812;74.628;2022-11-12T00:15:23;5.43;;;4.78;;
35745;SDS011;21870;42.812;74.628;2022-11-12T00:17:50;7.32;;;5.13;;
35745;SDS011;21870;42.812;74.628;2022-11-12T00:20:19;5.30;;;4.78;;
35745;SDS011;21870;42.812;74.628;2022-11-12T00:22:45;5.45;;;4.88;;
35745;SDS011;21870;42.812;74.628;2022-11-12T00:25:11;5.88;;;4.57;;
35745;SDS011;21870;42.812;74.628;2022-11-12T00:27:37;7.55;;;6.57;;
35745;SDS011;21870;42.812;74.628;2022-11-12T00:30:04;7.72;;;5.43;;
35745;SDS011;21870;42.812;74.628;2022-11-12T00:32:30;6.55;;;4.90;;
35745;SDS011;21870;42.812;74.628;2022-11-12T00:34:59;7.50;;;6.32;;
35745;SDS011;21870;42.812;74.628;2022-11-12T00:37:25;6.88;;;5.82;;
35745;SDS011;21870;42.812;74.628;2022-11-12T00:39:51;7.15;;;5.80;;
35745;SDS011;21870;42.812;74.628;2022-11-12T00:42:17;7.53;;;6.15;;
35745;SDS011;21870;42.812;74.628;2022-11-12T00:44:43;11.77;;;6.28;;
35745;SDS011;21870;42.812;74.628;2022-11-12T00:47:09;7.60;;;6.20;;
35745;SDS011;21870;42.812;74.628;2022-11-12T00:49:35;6.80;;;6.10;;
35745;SDS011;21870;42.812;74.628;2022-11-12T00:52:01;7.95;;;5.97;;
35745;SDS011;21870;42.812;74.628;2022-11-12T00:54:28;12.38;;;6.75;;
35745;SDS011;21870;42.812;74.628;2022-11-12T00:56:54;9.15;;;8.02;;
35745;SDS011;21870;42.812;74.628;2022-11-12T00:59:20;13.70;;;8.57;;
35745;SDS011;21870;42.812;74.628;2022-11-12T01:01:46;10.23;;;9.13;;
35745;SDS011;21870;42.812;74.628;2022-11-12T01:04:12;9.55;;;8.45;;
35745;SDS011;21870;42.812;74.628;2022-11-12T01:06:38;13.38;;;9.18;;
35745;SDS011;21870;42.812;74.628;2022-11-12T01:09:05;13.45;;;7.63;;
35745;SDS011;21870;42.812;74.628;2022-11-12T01:11:32;10.60;;;8.73;;
35745;SDS011;21870;42.812;74.628;2022-11-12T01:14:00;18.95;;;11.85;;
35745;SDS011;21870;42.812;74.628;2022-11-12T01:16:28;20.20;;;11.93;;
35745;SDS011;21870;42.812;74.628;2022-11-12T01:18:57;14.32;;;9.85;;
35745;SDS011;21870;42.812;74.628;2022-11-12T01:21:25;15.32;;;10.85;;
35745;SDS011;21870;42.812;74.628;2022-11-12T01:23:53;11.80;;;8.93;;
35745;SDS011;21870;42.812;74.628;2022-11-12T01:26:21;11.77;;;9.13;;
35745;SDS011;21870;42.812;74.628;2022-11-12T01:28:47;9.35;;;7.22;;
35745;SDS011;21870;42.812;74.628;2022-11-12T01:31:15;9.18;;;8.25;;
35745;SDS011;21870;42.812;74.628;2022-11-12T01:33:43;13.15;;;10.38;;
35745;SDS011;21870;42.812;74.628;2022-11-12T01:36:10;13.25;;;11.02;;
35745;SDS011;21870;42.812;74.628;2022-11-12T01:38:38;10.25;;;7.72;;
35745;SDS011;21870;42.812;74.628;2022-11-12T01:41:06;11.82;;;8.75;;
35745;SDS011;21870;42.812;74.628;2022-11-12T01:43:33;11.20;;;9.45;;
35745;SDS011;21870;42.812;74.628;2022-11-12T01:46:00;13.02;;;9.05;;
35745;SDS011;21870;42.812;74.628;2022-11-12T01:49:04;12.27;;;8.35;;
35745;SDS011;21870;42.812;74.628;2022-11-12T01:51:33;11.77;;;9.65;;
35745;SDS011;21870;42.812;74.628;2022-11-12T01:54:05;14.25;;;9.85;;
35745;SDS011;21870;42.812;74.628;2022-11-12T01:56:33;17.98;;;12.90;;
35745;SDS011;21870;42.812;74.628;2022-11-12T01:59:09;23.75;;;14.20;;
35745;SDS011;21870;42.812;74.628;2022-11-12T02:01:39;20.45;;;12.98;;
35745;SDS011;21870;42.812;74.628;2022-11-12T02:04:06;16.98;;;11.95;;
35745;SDS011;21870;42.812;74.628;2022-11-12T02:06:32;26.80;;;13.18;;
35745;SDS011;21870;42.812;74.628;2022-11-12T02:09:00;38.33;;;26.42;;
35745;SDS011;21870;42.812;74.628;2022-11-12T02:11:27;42.95;;;23.38;;
35745;SDS011;21870;42.812;74.628;2022-11-12T02:13:53;41.33;;;25.55;;
35745;SDS011;21870;42.812;74.628;2022-11-12T02:16:23;44.25;;;32.80;;
35745;SDS011;21870;42.812;74.628;2022-11-12T02:18:56;46.15;;;31.50;;
35745;SDS011;21870;42.812;74.628;2022-11-12T02:21:23;41.13;;;29.27;;
35745;SDS011;21870;42.812;74.628;2022-11-12T02:24:00;42.30;;;27.48;;
35745;SDS011;21870;42.812;74.628;2022-11-12T02:26:32;49.92;;;33.03;;
35745;SDS011;21870;42.812;74.628;2022-11-12T02:29:01;49.20;;;31.05;;
35745;SDS011;21870;42.812;74.628;2022-11-12T02:31:28;38.55;;;27.65;;
35745;SDS011;21870;42.812;74.628;2022-11-12T02:33:54;38.70;;;26.38;;
35745;SDS011;21870;42.812;74.628;2022-11-12T02:36:20;37.65;;;26.08;;
35745;SDS011;21870;42.812;74.628;2022-11-12T02:38:46;37.55;;;26.40;;
35745;SDS011;21870;42.812;74.628;2022-11-12T02:41:12;33.97;;;24.40;;
35745;SDS011;21870;42.812;74.628;2022-11-12T02:43:39;64.35;;;43.22;;
35745;SDS011;21870;42.812;74.628;2022-11-12T02:46:05;33.72;;;21.88;;
35745;SDS011;21870;42.812;74.628;2022-11-12T02:48:32;33.13;;;23.77;;
35745;SDS011;21870;42.812;74.628;2022-11-12T02:50:58;48.88;;;32.90;;
35745;SDS011;21870;42.812;74.628;2022-11-12T02:53:24;79.78;;;44.10;;
35745;SDS011;21870;42.812;74.628;2022-11-12T02:55:50;80.75;;;48.53;;
35745;SDS011;21870;42.812;74.628;2022-11-12T02:58:16;74.03;;;50.97;;
35745;SDS011;21870;42.812;74.628;2022-11-12T03:00:42;50.78;;;35.78;;
35745;SDS011;21870;42.812;74.628;2022-11-12T03:03:08;56.47;;;35.90;;
35745;SDS011;21870;42.812;74.628;2022-11-12T03:05:34;63.67;;;37.67;;
35745;SDS011;21870;42.812;74.628;2022-11-12T03:08:02;40.03;;;28.65;;
35745;SDS011;21870;42.812;74.628;2022-11-12T03:10:30;40.53;;;25.88;;
35745;SDS011;21870;42.812;74.628;2022-11-12T03:12:58;36.28;;;23.95;;
35745;SDS011;21870;42.812;74.628;2022-11-12T03:15:25;39.33;;;26.42;;
35745;SDS011;21870;42.812;74.628;2022-11-12T03:17:52;38.55;;;25.67;;
35745;SDS011;21870;42.812;74.628;2022-11-12T03:20:18;37.63;;;23.65;;
35745;SDS011;21870;42.812;74.628;2022-11-12T03:23:01;42.03;;;22.65;;
35745;SDS011;21870;42.812;74.628;2022-11-12T03:25:29;36.85;;;22.50;;
35745;SDS011;21870;42.812;74.628;2022-11-12T03:27:56;47.47;;;24.70;;
35745;SDS011;21870;42.812;74.628;2022-11-12T03:30:24;38.50;;;23.30;;
35745;SDS011;21870;42.812;74.628;2022-11-12T03:32:53;40.38;;;24.92;;
35745;SDS011;21870;42.812;74.628;2022-11-12T03:35:20;40.83;;;25.10;;
35745;SDS011;21870;42.812;74.628;2022-11-12T03:37:46;41.33;;;24.60;;
35745;SDS011;21870;42.812;74.628;2022-11-12T03:40:12;47.70;;;26.02;;
35745;SDS011;21870;42.812;74.628;2022-11-12T03:42:43;48.22;;;25.60;;
35745;SDS011;21870;42.812;74.628;2022-11-12T03:45:10;33.25;;;23.55;;
35745;SDS011;21870;42.812;74.628;2022-11-12T03:47:46;28.35;;;21.25;;
35745;SDS011;21870;42.812;74.628;2022-11-12T03:50:14;32.63;;;23.88;;
35745;SDS011;21870;42.812;74.628;2022-11-12T03:52:44;35.67;;;23.80;;
35745;SDS011;21870;42.812;74.628;2022-11-12T03:55:11;37.70;;;24.15;;
35745;SDS011;21870;42.812;74.628;2022-11-12T03:57:38;31.70;;;20.50;;
35745;SDS011;21870;42.812;74.628;2022-11-12T04:00:05;27.63;;;19.63;;
35745;SDS011;21870;42.812;74.628;2022-11-12T04:02:32;24.17;;;17.85;;
35745;SDS011;21870;42.812;74.628;2022-11-12T04:04:58;26.63;;;19.10;;
35745;SDS011;21870;42.812;74.628;2022-11-12T04:07:43;28.15;;;20.92;;
35745;SDS011;21870;42.812;74.628;2022-11-12T04:10:27;34.65;;;20.83;;
35745;SDS011;21870;42.812;74.628;2022-11-12T04:12:55;37.50;;;21.85;;
35745;SDS011;21870;42.812;74.628;2022-11-12T04:15:39;34.40;;;23.42;;
35745;SDS011;21870;42.812;74.628;2022-11-12T04:18:05;38.63;;;21.98;;
35745;SDS011;21870;42.812;74.628;2022-11-12T04:20:50;27.98;;;18.90;;
35745;SDS011;21870;42.812;74.628;2022-11-12T04:23:34;26.73;;;18.63;;
35745;SDS011;21870;42.812;74.628;2022-11-12T04:26:00;24.08;;;15.80;;
35745;SDS011;21870;42.812;74.628;2022-11-12T04:28:45;22.00;;;15.00;;
35745;SDS011;21870;42.812;74.628;2022-11-12T04:31:29;18.13;;;14.20;;
35745;SDS011;21870;42.812;74.628;2022-11-12T04:33:55;15.85;;;13.43;;
35745;SDS011;21870;42.812;74.628;2022-11-12T04:36:41;19.45;;;14.88;;
35745;SDS011;21870;42.812;74.628;2022-11-12T04:39:07;23.92;;;16.83;;
35745;SDS011;21870;42.812;74.628;2022-11-12T04:41:33;23.15;;;14.30;;
35745;SDS011;21870;42.812;74.628;2022-11-12T04:44:18;21.13;;;14.23;;
35745;SDS011;21870;42.812;74.628;2022-11-12T04:47:02;19.52;;;15.38;;
35745;SDS011;21870;42.812;74.628;2022-11-12T04:49:28;25.83;;;16.85;;
35745;SDS011;21870;42.812;74.628;2022-11-12T04:51:54;25.67;;;17.55;;
35745;SDS011;21870;42.812;74.628;2022-11-12T04:54:29;27.58;;;17.63;;
35745;SDS011;21870;42.812;74.628;2022-11-12T04:56:56;21.08;;;14.68;;
35745;SDS011;21870;42.812;74.628;2022-11-12T04:59:22;26.33;;;18.05;;
35745;SDS011;21870;42.812;74.628;2022-11-12T05:01:48;21.95;;;15.30;;
35745;SDS011;21870;42.812;74.628;2022-11-12T05:04:17;21.85;;;14.15;;
35745;SDS011;21870;42.812;74.628;2022-11-12T05:06:43;23.63;;;14.32;;
35745;SDS011;21870;42.812;74.628;2022-11-12T05:09:19;21.02;;;14.95;;
35745;SDS011;21870;42.812;74.628;2022-11-12T05:11:47;18.63;;;14.25;;
35745;SDS011;21870;42.812;74.628;2022-11-12T05:14:13;19.25;;;12.90;;
35745;SDS011;21870;42.812;74.628;2022-11-12T05:16:39;22.38;;;13.73;;
35745;SDS011;21870;42.812;74.628;2022-11-12T05:19:05;20.13;;;14.75;;
35745;SDS011;21870;42.812;74.628;2022-11-12T05:21:31;15.68;;;13.07;;
35745;SDS011;21870;42.812;74.628;2022-11-12T05:24:16;21.30;;;13.60;;
35745;SDS011;21870;42.812;74.628;2022-11-12T05:26:42;16.25;;;13.40;;
35745;SDS011;21870;42.812;74.628;2022-11-12T05:29:08;20.60;;;14.50;;
35745;SDS011;21870;42.812;74.628;2022-11-12T05:31:34;22.05;;;15.70;;
35745;SDS011;21870;42.812;74.628;2022-11-12T05:34:00;20.00;;;15.82;;
35745;SDS011;21870;42.812;74.628;2022-11-12T05:36:26;122.25;;;77.72;;
35745;SDS011;21870;42.812;74.628;2022-11-12T05:38:52;140.60;;;94.97;;
35745;SDS011;21870;42.812;74.628;2022-11-12T05:41:18;138.48;;;93.63;;
35745;SDS011;21870;42.812;74.628;2022-11-12T05:43:44;150.43;;;93.60;;
35745;SDS011;21870;42.812;74.628;2022-11-12T05:46:10;128.55;;;95.75;;
35745;SDS011;21870;42.812;74.628;2022-11-12T05:48:36;154.50;;;107.15;;
35745;SDS011;21870;42.812;74.628;2022-11-12T05:51:02;143.75;;;99.00;;
35745;SDS011;21870;42.812;74.628;2022-11-12T05:53:29;159.02;;;111.43;;
35745;SDS011;21870;42.812;74.628;2022-11-12T05:56:01;148.05;;;107.03;;
35745;SDS011;21870;42.812;74.628;2022-11-12T05:58:28;157.32;;;114.93;;
35745;SDS011;21870;42.812;74.628;2022-11-12T06:00:55;148.27;;;101.38;;
35745;SDS011;21870;42.812;74.628;2022-11-12T06:03:21;155.70;;;114.35;;
35745;SDS011;21870;42.812;74.628;2022-11-12T06:05:48;160.23;;;114.63;;
35745;SDS011;21870;42.812;74.628;2022-11-12T06:08:14;165.02;;;111.35;;
35745;SDS011;21870;42.812;74.628;2022-11-12T06:10:40;201.25;;;119.63;;
35745;SDS011;21870;42.812;74.628;2022-11-12T06:13:07;152.32;;;115.57;;
35745;SDS011;21870;42.812;74.628;2022-11-12T06:15:33;147.77;;;104.20;;
35745;SDS011;21870;42.812;74.628;2022-11-12T06:17:59;161.90;;;117.28;;
35745;SDS011;21870;42.812;74.628;2022-11-12T06:20:25;121.63;;;86.38;;
35745;SDS011;21870;42.812;74.628;2022-11-12T06:22:51;128.65;;;87.22;;
35745;SDS011;21870;42.812;74.628;2022-11-12T06:25:17;125.43;;;86.85;;
35745;SDS011;21870;42.812;74.628;2022-11-12T06:27:43;163.05;;;92.47;;
35745;SDS011;21870;42.812;74.628;2022-11-12T06:30:09;122.43;;;82.88;;
35745;SDS011;21870;42.812;74.628;2022-11-12T06:32:36;123.18;;;90.30;;
35745;SDS011;21870;42.812;74.628;2022-11-12T06:35:02;118.68;;;88.28;;
35745;SDS011;21870;42.812;74.628;2022-11-12T06:37:28;133.65;;;87.85;;
35745;SDS011;21870;42.812;74.628;2022-11-12T06:39:54;148.50;;;89.28;;
35745;SDS011;21870;42.812;74.628;2022-11-12T06:42:20;129.23;;;87.60;;
35745;SDS011;21870;42.812;74.628;2022-11-12T06:44:46;122.45;;;86.15;;
35745;SDS011;21870;42.812;74.628;2022-11-12T06:47:12;131.27;;;95.00;;
35745;SDS011;21870;42.812;74.628;2022-11-12T06:49:38;139.20;;;100.88;;
35745;SDS011;21870;42.812;74.628;2022-11-12T06:52:04;133.90;;;96.68;;
35745;SDS011;21870;42.812;74.628;2022-11-12T06:54:30;156.63;;;113.20;;
35745;SDS011;21870;42.812;74.628;2022-11-12T06:56:56;181.52;;;118.80;;
35745;SDS011;21870;42.812;74.628;2022-11-12T06:59:22;164.57;;;113.43;;
35745;SDS011;21870;42.812;74.628;2022-11-12T07:01:48;167.48;;;120.25;;
35745;SDS011;21870;42.812;74.628;2022-11-12T07:04:15;174.68;;;118.13;;
35745;SDS011;21870;42.812;74.628;2022-11-12T07:06:41;164.13;;;116.13;;
35745;SDS011;21870;42.812;74.628;2022-11-12T07:09:07;148.93;;;116.30;;
35745;SDS011;21870;42.812;74.628;2022-11-12T07:11:33;166.18;;;117.20;;
35745;SDS011;21870;42.812;74.628;2022-11-12T07:13:59;190.95;;;128.38;;
35745;SDS011;21870;42.812;74.628;2022-11-12T07:16:25;166.88;;;124.85;;
35745;SDS011;21870;42.812;74.628;2022-11-12T07:18:51;190.77;;;126.80;;
35745;SDS011;21870;42.812;74.628;2022-11-12T07:21:18;181.13;;;125.30;;
35745;SDS011;21870;42.812;74.628;2022-11-12T07:23:45;181.40;;;126.45;;
35745;SDS011;21870;42.812;74.628;2022-11-12T07:26:21;198.55;;;129.77;;
35745;SDS011;21870;42.812;74.628;2022-11-12T07:28:50;190.20;;;126.38;;
35745;SDS011;21870;42.812;74.628;2022-11-12T07:31:17;189.73;;;127.93;;
35745;SDS011;21870;42.812;74.628;2022-11-12T07:33:44;179.75;;;129.50;;
35745;SDS011;21870;42.812;74.628;2022-11-12T07:36:13;168.30;;;123.47;;
35745;SDS011;21870;42.812;74.628;2022-11-12T07:38:41;195.07;;;127.07;;
35745;SDS011;21870;42.812;74.628;2022-11-12T07:41:18;173.57;;;126.20;;
35745;SDS011;21870;42.812;74.628;2022-11-12T07:43:46;184.20;;;126.00;;
35745;SDS011;21870;42.812;74.628;2022-11-12T07:46:18;177.75;;;125.40;;
35745;SDS011;21870;42.812;74.628;2022-11-12T07:48:46;180.35;;;125.47;;
35745;SDS011;21870;42.812;74.628;2022-11-12T07:51:13;199.57;;;123.38;;
35745;SDS011;21870;42.812;74.628;2022-11-12T07:53:41;173.88;;;123.88;;
35745;SDS011;21870;42.812;74.628;2022-11-12T07:56:09;174.32;;;121.97;;
35745;SDS011;21870;42.812;74.628;2022-11-12T07:58:37;163.25;;;117.63;;
35745;SDS011;21870;42.812;74.628;2022-11-12T08:01:07;166.88;;;116.93;;
35745;SDS011;21870;42.812;74.628;2022-11-12T08:03:33;178.10;;;119.50;;
35745;SDS011;21870;42.812;74.628;2022-11-12T08:06:00;167.93;;;120.40;;
35745;SDS011;21870;42.812;74.628;2022-11-12T08:08:26;175.65;;;117.78;;
35745;SDS011;21870;42.812;74.628;2022-11-12T08:10:53;182.45;;;120.55;;
35745;SDS011;21870;42.812;74.628;2022-11-12T08:13:24;196.07;;;118.60;;
35745;SDS011;21870;42.812;74.628;2022-11-12T08:15:50;167.88;;;115.90;;
35745;SDS011;21870;42.812;74.628;2022-11-12T08:18:16;159.00;;;119.25;;
35745;SDS011;21870;42.812;74.628;2022-11-12T08:20:42;164.32;;;117.03;;
35745;SDS011;21870;42.812;74.628;2022-11-12T08:23:08;163.68;;;117.55;;
35745;SDS011;21870;42.812;74.628;2022-11-12T08:25:35;174.05;;;116.65;;
35745;SDS011;21870;42.812;74.628;2022-11-12T08:28:01;151.35;;;113.72;;
35745;SDS011;21870;42.812;74.628;2022-11-12T08:30:28;162.45;;;117.18;;
35745;SDS011;21870;42.812;74.628;2022-11-12T08:32:58;166.25;;;113.00;;
35745;SDS011;21870;42.812;74.628;2022-11-12T08:35:29;155.25;;;114.55;;
35745;SDS011;21870;42.812;74.628;2022-11-12T08:37:57;163.88;;;114.60;;
35745;SDS011;21870;42.812;74.628;2022-11-12T08:40:28;149.98;;;118.45;;
35745;SDS011;21870;42.812;74.628;2022-11-12T08:43:03;158.48;;;113.72;;
35745;SDS011;21870;42.812;74.628;2022-11-12T08:45:31;162.38;;;115.82;;
35745;SDS011;21870;42.812;74.628;2022-11-12T08:48:00;155.48;;;113.28;;
35745;SDS011;21870;42.812;74.628;2022-11-12T08:50:30;179.30;;;115.75;;
35745;SDS011;21870;42.812;74.628;2022-11-12T08:53:00;177.20;;;116.43;;
35745;SDS011;21870;42.812;74.628;2022-11-12T08:55:27;153.15;;;116.90;;
35745;SDS011;21870;42.812;74.628;2022-11-12T08:57:54;172.95;;;116.65;;
35745;SDS011;21870;42.812;74.628;2022-11-12T09:00:23;162.57;;;116.07;;
35745;SDS011;21870;42.812;74.628;2022-11-12T09:02:49;156.48;;;114.00;;
35745;SDS011;21870;42.812;74.628;2022-11-12T09:05:15;158.15;;;113.43;;
35745;SDS011;21870;42.812;74.628;2022-11-12T09:07:41;171.50;;;115.50;;
35745;SDS011;21870;42.812;74.628;2022-11-12T09:10:07;149.95;;;114.30;;
35745;SDS011;21870;42.812;74.628;2022-11-12T09:12:33;152.73;;;112.80;;
35745;SDS011;21870;42.812;74.628;2022-11-12T09:14:59;156.70;;;114.47;;
35745;SDS011;21870;42.812;74.628;2022-11-12T09:17:25;156.35;;;114.22;;
35745;SDS011;21870;42.812;74.628;2022-11-12T09:19:53;153.02;;;112.93;;
35745;SDS011;21870;42.812;74.628;2022-11-12T09:22:19;153.57;;;111.72;;
35745;SDS011;21870;42.812;74.628;2022-11-12T09:24:45;153.88;;;106.20;;
35745;SDS011;21870;42.812;74.628;2022-11-12T09:27:11;162.90;;;110.07;;
35745;SDS011;21870;42.812;74.628;2022-11-12T09:29:40;142.27;;;108.38;;
35745;SDS011;21870;42.812;74.628;2022-11-12T09:32:06;144.32;;;107.55;;
35745;SDS011;21870;42.812;74.628;2022-11-12T09:34:32;141.07;;;105.07;;
35745;SDS011;21870;42.812;74.628;2022-11-12T09:36:58;161.95;;;108.22;;
35745;SDS011;21870;42.812;74.628;2022-11-12T09:39:24;150.30;;;114.88;;
35745;SDS011;21870;42.812;74.628;2022-11-12T09:41:50;176.70;;;121.22;;
35745;SDS011;21870;42.812;74.628;2022-11-12T09:44:22;173.23;;;122.25;;
35745;SDS011;21870;42.812;74.628;2022-11-12T09:47:01;161.18;;;118.55;;
35745;SDS011;21870;42.812;74.628;2022-11-12T09:49:44;169.32;;;126.50;;
35745;SDS011;21870;42.812;74.628;2022-11-12T09:52:23;174.15;;;129.73;;
35745;SDS011;21870;42.812;74.628;2022-11-12T09:55:03;171.77;;;129.75;;
35745;SDS011;21870;42.812;74.628;2022-11-12T09:57:41;185.02;;;132.73;;
35745;SDS011;21870;42.812;74.628;2022-11-12T10:00:16;172.48;;;130.50;;
35745;SDS011;21870;42.812;74.628;2022-11-12T10:02:54;179.18;;;135.13;;
35745;SDS011;21870;42.812;74.628;2022-11-12T10:05:32;194.07;;;140.48;;
35745;SDS011;21870;42.812;74.628;2022-11-12T10:10:52;218.20;;;144.55;;
35745;SDS011;21870;42.812;74.628;2022-11-12T10:19:22;200.98;;;148.95;;
35745;SDS011;21870;42.812;74.628;2022-11-12T10:25:20;197.95;;;148.73;;
35745;SDS011;21870;42.812;74.628;2022-11-12T10:27:46;200.10;;;148.38;;
35745;SDS011;21870;42.812;74.628;2022-11-12T10:32:45;204.68;;;152.07;;
35745;SDS011;21870;42.812;74.628;2022-11-12T10:35:16;215.23;;;147.90;;
35745;SDS011;21870;42.812;74.628;2022-11-12T10:37:49;237.07;;;152.45;;
35745;SDS011;21870;42.812;74.628;2022-11-12T10:40:37;198.23;;;141.55;;
35745;SDS011;21870;42.812;74.628;2022-11-12T10:43:04;192.57;;;144.43;;
35745;SDS011;21870;42.812;74.628;2022-11-12T10:45:45;200.40;;;146.13;;
35745;SDS011;21870;42.812;74.628;2022-11-12T10:48:20;209.63;;;142.10;;
35745;SDS011;21870;42.812;74.628;2022-11-12T10:50:52;206.32;;;137.65;;
35745;SDS011;21870;42.812;74.628;2022-11-12T10:53:30;175.30;;;129.25;;
35745;SDS011;21870;42.812;74.628;2022-11-12T10:56:48;185.02;;;128.40;;
35745;SDS011;21870;42.812;74.628;2022-11-12T11:01:42;156.63;;;116.35;;
35745;SDS011;21870;42.812;74.628;2022-11-12T11:04:42;175.85;;;119.18;;
35745;SDS011;21870;42.812;74.628;2022-11-12T11:09:55;170.30;;;111.18;;
35745;SDS011;21870;42.812;74.628;2022-11-12T11:12:28;167.98;;;111.50;;
35745;SDS011;21870;42.812;74.628;2022-11-12T11:15:06;156.73;;;111.18;;
35745;SDS011;21870;42.812;74.628;2022-11-12T11:17:42;147.80;;;109.57;;
35745;SDS011;21870;42.812;74.628;2022-11-12T11:22:49;139.75;;;108.53;;
35745;SDS011;21870;42.812;74.628;2022-11-12T11:25:27;175.25;;;111.88;;
35745;SDS011;21870;42.812;74.628;2022-11-12T11:30:58;150.90;;;104.90;;
35745;SDS011;21870;42.812;74.628;2022-11-12T11:33:40;159.38;;;110.28;;
35745;SDS011;21870;42.812;74.628;2022-11-12T11:36:54;145.27;;;107.00;;
35745;SDS011;21870;42.812;74.628;2022-11-12T11:39:34;146.52;;;104.45;;
35745;SDS011;21870;42.812;74.628;2022-11-12T11:45:14;180.10;;;115.85;;
35745;SDS011;21870;42.812;74.628;2022-11-12T11:48:20;176.63;;;120.47;;
35745;SDS011;21870;42.812;74.628;2022-11-12T11:54:01;177.32;;;118.82;;
35745;SDS011;21870;42.812;74.628;2022-11-12T11:56:32;224.00;;;118.28;;
35745;SDS011;21870;42.812;74.628;2022-11-12T12:12:50;247.93;;;143.55;;
35745;SDS011;21870;42.812;74.628;2022-11-12T12:23:33;250.32;;;142.88;;
35745;SDS011;21870;42.812;74.628;2022-11-12T12:31:49;252.48;;;144.68;;
35745;SDS011;21870;42.812;74.628;2022-11-12T12:34:30;234.63;;;139.05;;
35745;SDS011;21870;42.812;74.628;2022-11-12T12:37:19;245.35;;;144.50;;
35745;SDS011;21870;42.812;74.628;2022-11-12T12:40:00;258.60;;;154.20;;
35745;SDS011;21870;42.812;74.628;2022-11-12T12:42:50;256.33;;;158.77;;
35745;SDS011;21870;42.812;74.628;2022-11-12T12:45:41;266.75;;;177.30;;
35745;SDS011;21870;42.812;74.628;2022-11-12T12:48:27;262.23;;;157.35;;
35745;SDS011;21870;42.812;74.628;2022-11-12T12:50:58;286.02;;;152.20;;
35745;SDS011;21870;42.812;74.628;2022-11-12T12:55:54;255.73;;;156.73;;
35745;SDS011;21870;42.812;74.628;2022-11-12T12:58:29;261.83;;;165.23;;
35745;SDS011;21870;42.812;74.628;2022-11-12T13:01:06;248.40;;;154.00;;
35745;SDS011;21870;42.812;74.628;2022-11-12T13:11:49;248.30;;;161.02;;
35745;SDS011;21870;42.812;74.628;2022-11-12T13:19:27;270.45;;;179.60;;
35745;SDS011;21870;42.812;74.628;2022-11-12T13:35:35;282.90;;;182.55;;
35745;SDS011;21870;42.812;74.628;2022-11-12T13:46:25;259.15;;;169.88;;
35745;SDS011;21870;42.812;74.628;2022-11-12T13:51:36;232.07;;;158.55;;
35745;SDS011;21870;42.812;74.628;2022-11-12T13:54:24;223.13;;;147.57;;
35745;SDS011;21870;42.812;74.628;2022-11-12T13:56:51;241.95;;;156.02;;
35745;SDS011;21870;42.812;74.628;2022-11-12T13:59:19;247.02;;;161.45;;
35745;SDS011;21870;42.812;74.628;2022-11-12T14:01:47;256.80;;;164.25;;
35745;SDS011;21870;42.812;74.628;2022-11-12T14:04:15;259.38;;;159.02;;
35745;SDS011;21870;42.812;74.628;2022-11-12T14:06:50;243.52;;;154.02;;
35745;SDS011;21870;42.812;74.628;2022-11-12T14:09:43;235.93;;;148.63;;
35745;SDS011;21870;42.812;74.628;2022-11-12T14:12:33;235.57;;;151.93;;
35745;SDS011;21870;42.812;74.628;2022-11-12T14:15:29;229.93;;;148.68;;
35745;SDS011;21870;42.812;74.628;2022-11-12T14:21:14;238.90;;;149.25;;
35745;SDS011;21870;42.812;74.628;2022-11-12T14:23:45;258.13;;;153.40;;
35745;SDS011;21870;42.812;74.628;2022-11-12T14:26:32;233.63;;;150.35;;
35745;SDS011;21870;42.812;74.628;2022-11-12T14:29:02;246.20;;;155.73;;
35745;SDS011;21870;42.812;74.628;2022-11-12T14:31:29;224.68;;;143.00;;
35745;SDS011;21870;42.812;74.628;2022-11-12T14:33:55;274.60;;;168.50;;
35745;SDS011;21870;42.812;74.628;2022-11-12T14:36:21;278.73;;;189.77;;
35745;SDS011;21870;42.812;74.628;2022-11-12T14:38:49;200.55;;;124.93;;
35745;SDS011;21870;42.812;74.628;2022-11-12T14:41:19;164.00;;;106.65;;
35745;SDS011;21870;42.812;74.628;2022-11-12T14:43:49;198.70;;;131.02;;
35745;SDS011;21870;42.812;74.628;2022-11-12T14:52:26;255.98;;;154.50;;
35745;SDS011;21870;42.812;74.628;2022-11-12T14:54:57;209.60;;;141.68;;
35745;SDS011;21870;42.812;74.628;2022-11-12T14:57:30;227.85;;;150.60;;
35745;SDS011;21870;42.812;74.628;2022-11-12T14:59:56;234.00;;;156.90;;
35745;SDS011;21870;42.812;74.628;2022-11-12T15:02:40;242.15;;;164.48;;
35745;SDS011;21870;42.812;74.628;2022-11-12T15:05:14;217.07;;;140.93;;
35745;SDS011;21870;42.812;74.628;2022-11-12T15:15:36;222.05;;;134.27;;
35745;SDS011;21870;42.812;74.628;2022-11-12T15:18:12;247.60;;;146.63;;
35745;SDS011;21870;42.812;74.628;2022-11-12T15:23:34;271.17;;;156.27;;
35745;SDS011;21870;42.812;74.628;2022-11-12T15:26:01;390.33;;;156.68;;
35745;SDS011;21870;42.812;74.628;2022-11-12T15:28:27;301.45;;;153.40;;
35745;SDS011;21870;42.812;74.628;2022-11-12T15:33:29;212.77;;;132.93;;
35745;SDS011;21870;42.812;74.628;2022-11-12T15:35:56;202.70;;;140.25;;
35745;SDS011;21870;42.812;74.628;2022-11-12T15:38:27;187.23;;;130.90;;
35745;SDS011;21870;42.812;74.628;2022-11-12T15:41:00;171.25;;;120.55;;
35745;SDS011;21870;42.812;74.628;2022-11-12T15:43:28;182.38;;;126.25;;
35745;SDS011;21870;42.812;74.628;2022-11-12T15:45:56;204.98;;;136.15;;
35745;SDS011;21870;42.812;74.628;2022-11-12T15:48:22;195.90;;;130.65;;
35745;SDS011;21870;42.812;74.628;2022-11-12T15:50:48;192.25;;;130.40;;
35745;SDS011;21870;42.812;74.628;2022-11-12T15:53:15;198.73;;;130.77;;
35745;SDS011;21870;42.812;74.628;2022-11-12T15:55:41;209.15;;;137.57;;
35745;SDS011;21870;42.812;74.628;2022-11-12T15:58:18;185.02;;;127.47;;
35745;SDS011;21870;42.812;74.628;2022-11-12T16:00:51;186.32;;;124.03;;
35745;SDS011;21870;42.812;74.628;2022-11-12T16:03:20;202.55;;;127.80;;
35745;SDS011;21870;42.812;74.628;2022-11-12T16:05:46;169.13;;;115.63;;
35745;SDS011;21870;42.812;74.628;2022-11-12T16:08:13;162.25;;;111.10;;
35745;SDS011;21870;42.812;74.628;2022-11-12T16:10:40;163.07;;;111.50;;
35745;SDS011;21870;42.812;74.628;2022-11-12T16:13:14;163.65;;;109.70;;
35745;SDS011;21870;42.812;74.628;2022-11-12T16:15:50;142.63;;;96.95;;